Terminal Aerodrome Forecast
Issued by NWS

Home | Current Version | Previous Version | Text Only | Print | Product List | Glossary On
Versions: 1 2 3 4 5 6 7 8 9 10 11 12
000
FTUS42 TJSJ 270500
TAFJSJ
TAF
TJSJ 270520Z 2706/2806 09008KT P6SM VCSH FEW025
     FM271430 09017G24KT P6SM SCT035
     FM272200 09010KT P6SM FEW030=

USA.gov is the U.S. government's official web portal to all federal, state and local government web resources and services.